Airfield :
LOGIN :

Register | Disclaimer

   EN    FR    IT 

 










Legend :    VFR   Marginal VFR   IFR   Intensive IFR   Very Intensive IFR
Visi :
Ceiling :
>= 8 km
>= 3000ft
5 to 8 km
1000 to 3000 ft
1500m to 5 km
500 to 1000 ft
800 to 1500m
200 to 500 ft
< 800m
< 200 ft
Symbols :   Thunderstorms  Fog  Heavy snow  Heavy precipitations  Wind > 20 kt
SIGMETs :     Misc.  Thunderstorms  Icing  Turbulence  Mountain Waves  Volcanic Ashes







- Airport Elevation : 1115 ft
- IATA code : GRZ


LOWG - Graz

CURRENT METAR :
  • 241520Z VRB02KT 9999 -SHRA FEW030 SCT050 FEW050CB BKN100 18/16 Q1017 BECMG NSW

EXPIRED METARs :
  • 241450Z 32003KT 9999 -SHRA VCTS FEW030 SCT045 FEW050CB BKN100 18/16 Q1017 BECMG NSW
  • 241350Z 35007KT 9999 -TSRA FEW030 SCT035 FEW050CB BKN080 20/14 Q1017 TEMPO 27015KT TSRA
  • 241320Z 36011KT 9999 TS FEW025 SCT030 FEW050CB BKN080 20/14 Q1018 TEMPO 27015KT TSRA
  • 241250Z 35009KT 9999 FEW025 SCT030 FEW050CB BKN060 21/15 Q1018 TEMPO TS

TAF TAF LOWG
Valid from the 24 at 12:00 until the 25 at 12:00 UTC


241115Z 2412/2512 VRB02KT 9999 FEW040 SCT070 BKN100 TX21/2412Z TN14/2503Z
TEMPO 2412/2512 VRB10KT -SHRA SCT040 FEW050CB BKN060
TEMPO 2412/2421 VRB15G25KT 4000 TSRA SCT040CB BKN050
PROB30
TEMPO 2500/2505 1200 BCFG SCT002
No reported NOTAMs for that airfield.



MET'MAP, your aeronautical weather chart ! - Copyright ORBIFLY December 2007 - Disclaimer

ORBIFLY MET'MAP TEAM :

Programming & Development : Alexandra Zaïnal
Concept & Development : Baudouin d'Aumeries
Co-Development & Prog : Marc-Olivier Méhu
Technical & hardware support : Manuel Goepfert

Contact : metmap@orbifly.com




SOURCES & CREDITS :

   NOAA